createdAt,value
2022-08-23T00:02:27.123Z,6.65
2022-08-23T00:05:07.976Z,7.40
2022-08-23T00:07:42.222Z,9.57
2022-08-23T00:10:11.382Z,7.28
2022-08-23T00:12:38.894Z,8.20
2022-08-23T00:15:07.557Z,7.90
2022-08-23T00:17:36.623Z,9.73
2022-08-23T00:20:08.465Z,8.15
2022-08-23T00:22:36.109Z,10.20
2022-08-23T00:25:04.107Z,10.07
2022-08-23T00:27:30.939Z,7.85
2022-08-23T00:29:58.199Z,9.45
2022-08-23T00:32:28.249Z,9.82
2022-08-23T00:34:56.163Z,8.88
2022-08-23T00:37:23.892Z,11.55
2022-08-23T00:39:50.958Z,8.50
2022-08-23T00:43:01.822Z,13.23
2022-08-23T00:45:58.033Z,9.45
2022-08-23T00:48:25.643Z,12.57
2022-08-23T00:51:05.712Z,11.98
2022-08-23T00:53:38.276Z,11.23
2022-08-23T00:56:09.187Z,11.88
2022-08-23T00:58:36.574Z,11.30
2022-08-23T01:01:06.488Z,10.90
2022-08-23T01:03:43.964Z,10.48
2022-08-23T01:06:23.868Z,10.90
2022-08-23T01:09:00.333Z,10.07
2022-08-23T01:11:27.132Z,13.70
2022-08-23T01:14:01.972Z,12.45
2022-08-23T01:16:36.871Z,10.95
2022-08-23T01:19:08.186Z,13.48
2022-08-23T01:21:43.943Z,11.75
2022-08-23T01:24:19.093Z,11.05
2022-08-23T01:27:00.829Z,10.45
2022-08-23T01:29:27.685Z,10.23
2022-08-23T01:31:56.130Z,8.95
2022-08-23T01:34:27.348Z,9.60
2022-08-23T01:36:55.872Z,11.23
2022-08-23T01:39:23.687Z,8.98
2022-08-23T01:41:51.499Z,10.10
2022-08-23T01:44:19.132Z,12.88
2022-08-23T01:46:47.360Z,10.85
2022-08-23T01:49:14.425Z,11.93
2022-08-23T01:51:42.671Z,8.25
2022-08-23T01:54:09.947Z,9.55
2022-08-23T01:56:38.733Z,10.23
2022-08-23T01:59:08.569Z,9.30
2022-08-23T02:01:36.073Z,12.00
2022-08-23T02:04:04.768Z,9.93
2022-08-23T02:06:33.449Z,8.65
2022-08-23T02:09:03.879Z,8.68
2022-08-23T02:11:39.342Z,8.88
2022-08-23T02:14:15.661Z,8.50
2022-08-23T02:16:59.991Z,10.77
2022-08-23T02:19:33.894Z,8.63
2022-08-23T02:22:01.120Z,9.00
2022-08-23T02:24:28.388Z,8.15
2022-08-23T02:26:57.904Z,11.25
2022-08-23T02:29:26.312Z,8.55
2022-08-23T02:31:54.248Z,9.35
2022-08-23T02:34:38.163Z,10.13
2022-08-23T02:37:06.840Z,10.30
2022-08-23T02:39:34.849Z,11.45
2022-08-23T02:42:01.979Z,10.55
2022-08-23T02:44:29.224Z,9.45
2022-08-23T02:46:56.215Z,6.80
2022-08-23T02:49:23.307Z,11.07
2022-08-23T02:51:50.268Z,9.10
2022-08-23T02:54:17.195Z,8.93
2022-08-23T02:56:44.266Z,10.00
2022-08-23T02:59:11.182Z,9.48
2022-08-23T03:01:39.701Z,9.15
2022-08-23T03:04:09.863Z,10.68
2022-08-23T03:06:38.098Z,11.07
2022-08-23T03:09:07.492Z,11.55
2022-08-23T03:11:34.798Z,13.65
2022-08-23T03:14:02.291Z,8.88
2022-08-23T03:16:29.591Z,9.65
2022-08-23T03:18:56.666Z,9.27
2022-08-23T03:21:23.717Z,8.98
2022-08-23T03:23:51.695Z,8.15
2022-08-23T03:26:18.961Z,10.63
2022-08-23T03:28:47.448Z,10.68
2022-08-23T03:31:15.761Z,9.85
2022-08-23T03:33:43.008Z,9.18
2022-08-23T03:36:12.399Z,10.32
2022-08-23T03:38:41.099Z,9.80
2022-08-23T03:41:08.906Z,7.80
2022-08-23T03:43:36.365Z,8.88
2022-08-23T03:46:03.643Z,10.50
2022-08-23T03:48:30.610Z,9.07
2022-08-23T03:50:57.601Z,9.43
2022-08-23T03:53:24.578Z,17.73
2022-08-23T03:55:54.831Z,12.35
2022-08-23T03:58:22.003Z,10.02
2022-08-23T04:00:49.620Z,9.27
2022-08-23T04:03:16.689Z,10.05
2022-08-23T04:05:44.059Z,11.48
2022-08-23T04:08:11.934Z,12.13
2022-08-23T04:10:39.535Z,12.15
2022-08-23T04:13:09.412Z,10.10
2022-08-23T04:18:03.580Z,11.23
2022-08-23T04:20:30.468Z,12.57
2022-08-23T04:22:57.555Z,14.77
2022-08-23T04:25:34.577Z,13.05
2022-08-23T04:28:03.139Z,12.82
2022-08-23T04:30:30.781Z,15.93
2022-08-23T04:32:58.110Z,14.27
2022-08-23T04:35:26.374Z,18.48
2022-08-23T04:37:54.086Z,18.00
2022-08-23T04:41:05.570Z,13.93
2022-08-23T04:44:49.521Z,15.57
2022-08-23T04:47:29.483Z,14.20
2022-08-23T04:50:22.346Z,17.77
2022-08-23T04:53:58.617Z,14.52
2022-08-23T04:56:08.346Z,14.90
2022-08-23T04:59:12.976Z,15.18
2022-08-23T05:05:46.082Z,14.43
2022-08-23T05:08:38.713Z,15.77
2022-08-23T05:11:17.128Z,14.85
2022-08-23T05:13:44.890Z,14.70
2022-08-23T05:19:30.231Z,15.75
2022-08-23T05:22:00.654Z,15.40
2022-08-23T05:37:05.560Z,10.80
2022-08-23T05:39:36.375Z,11.30
2022-08-23T05:42:09.834Z,11.63
2022-08-23T05:44:38.321Z,10.93
2022-08-23T05:47:12.672Z,11.02
2022-08-23T05:49:48.974Z,9.75
2022-08-23T05:52:22.242Z,10.07
2022-08-23T05:54:59.802Z,10.25
2022-08-23T05:57:36.644Z,9.68
2022-08-23T06:00:19.115Z,10.48
2022-08-23T06:02:47.852Z,10.30
2022-08-23T06:05:27.456Z,10.90
2022-08-23T06:08:03.493Z,10.77
2022-08-23T06:10:50.803Z,8.55
2022-08-23T06:13:48.540Z,9.65
2022-08-23T06:16:15.065Z,11.73
2022-08-23T06:18:58.504Z,8.85
2022-08-23T06:21:26.653Z,9.57
2022-08-23T06:23:53.475Z,8.73
2022-08-23T06:26:26.073Z,12.15
2022-08-23T06:28:55.756Z,7.10
2022-08-23T06:31:44.001Z,9.90
2022-08-23T06:34:13.432Z,6.38
2022-08-23T06:36:40.391Z,9.00
2022-08-23T06:39:10.155Z,10.52
2022-08-23T06:44:04.226Z,7.72
2022-08-23T06:46:31.289Z,8.52
2022-08-23T06:48:59.674Z,7.10
2022-08-23T06:51:26.482Z,6.05
2022-08-23T06:53:55.306Z,5.68
2022-08-23T06:56:27.125Z,5.15
2022-08-23T06:58:54.704Z,5.30
2022-08-23T07:01:46.388Z,5.78
2022-08-23T07:04:16.819Z,5.28
2022-08-23T07:06:43.869Z,6.88
2022-08-23T07:09:11.031Z,6.43
2022-08-23T07:11:39.745Z,7.53
2022-08-23T07:14:11.047Z,6.82
2022-08-23T07:16:44.702Z,6.93
2022-08-23T07:19:12.585Z,7.25
2022-08-23T07:21:39.636Z,8.25
2022-08-23T07:24:06.849Z,6.68
2022-08-23T07:26:33.680Z,6.63
2022-08-23T07:29:00.392Z,6.07
2022-08-23T07:31:32.751Z,5.55
2022-08-23T07:34:05.504Z,7.50
2022-08-23T07:36:33.869Z,4.30
2022-08-23T07:39:01.439Z,6.93
2022-08-23T07:41:32.763Z,6.18
2022-08-23T07:44:04.646Z,4.63
2022-08-23T07:46:33.258Z,6.10
2022-08-23T07:49:01.697Z,5.90
2022-08-23T07:51:30.949Z,4.82
2022-08-23T07:53:58.944Z,8.07
2022-08-23T07:56:25.656Z,6.03
2022-08-23T07:58:52.969Z,8.10
2022-08-23T08:01:25.151Z,11.18
2022-08-23T08:03:54.200Z,5.82
2022-08-23T08:06:25.507Z,7.70
2022-08-23T08:08:52.992Z,8.43
2022-08-23T08:11:23.250Z,5.68
2022-08-23T08:13:51.886Z,9.35
2022-08-23T08:16:28.812Z,6.68
2022-08-23T08:18:59.603Z,8.20
2022-08-23T08:21:27.728Z,7.70
2022-08-23T08:23:55.603Z,5.97
2022-08-23T08:26:23.157Z,10.50
2022-08-23T08:28:50.002Z,7.85
2022-08-23T08:31:16.984Z,8.60
2022-08-23T08:33:43.933Z,7.40
2022-08-23T08:36:37.669Z,8.32
2022-08-23T08:39:11.086Z,6.68
2022-08-23T08:41:48.680Z,6.00
2022-08-23T08:44:32.108Z,7.30
2022-08-23T08:46:59.435Z,7.10
2022-08-23T08:49:47.781Z,7.85
2022-08-23T08:52:36.791Z,8.25
2022-08-23T08:55:14.048Z,8.88
2022-08-23T08:57:45.178Z,7.93
2022-08-23T09:00:17.724Z,6.70
2022-08-23T09:02:45.482Z,6.72
2022-08-23T09:05:19.004Z,7.75
2022-08-23T09:08:18.728Z,6.65
2022-08-23T09:10:50.137Z,8.68
2022-08-23T09:13:45.469Z,9.85
2022-08-23T09:16:37.454Z,7.93
2022-08-23T09:19:04.858Z,7.80
2022-08-23T09:21:43.646Z,10.15
2022-08-23T09:24:10.402Z,7.05
2022-08-23T09:26:37.649Z,5.20
2022-08-23T09:29:25.505Z,6.82
2022-08-23T09:31:58.433Z,7.07
2022-08-23T09:34:37.182Z,7.03
2022-08-23T09:37:23.101Z,6.03
2022-08-23T09:40:14.345Z,7.35
2022-08-23T09:42:41.887Z,8.95
2022-08-23T09:45:49.835Z,8.07
2022-08-23T09:48:45.157Z,6.93
2022-08-23T09:51:21.736Z,7.60
2022-08-23T09:54:03.812Z,7.10
2022-08-23T09:56:34.169Z,8.10
2022-08-23T09:59:01.995Z,7.60
2022-08-23T10:01:39.266Z,7.45
2022-08-23T10:04:08.973Z,6.63
2022-08-23T10:06:36.734Z,7.18
2022-08-23T10:09:06.109Z,7.20
2022-08-23T10:11:41.878Z,6.68
2022-08-23T10:14:09.957Z,7.93
2022-08-23T10:16:55.778Z,9.02
2022-08-23T10:19:53.256Z,7.85
2022-08-23T10:22:28.771Z,7.30
2022-08-23T10:25:06.028Z,8.52
2022-08-23T10:28:13.157Z,8.63
2022-08-23T10:31:01.739Z,8.98
2022-08-23T10:33:39.922Z,7.75
2022-08-23T10:36:10.155Z,8.38
2022-08-23T10:39:00.772Z,7.55
2022-08-23T10:42:08.105Z,9.77
2022-08-23T10:44:38.303Z,9.35
2022-08-23T10:47:14.974Z,8.98
2022-08-23T10:49:43.019Z,9.57
2022-08-23T10:52:15.453Z,10.35
2022-08-23T10:55:16.749Z,9.13
2022-08-23T10:57:46.766Z,11.07
2022-08-23T11:00:19.409Z,9.60
2022-08-23T11:03:42.107Z,10.50
2022-08-23T11:06:36.305Z,10.07
2022-08-23T11:09:18.303Z,9.48
2022-08-23T11:12:13.046Z,10.65
2022-08-23T11:14:46.162Z,10.57
2022-08-23T11:17:28.369Z,9.63
2022-08-23T11:20:08.832Z,10.60
2022-08-23T11:23:07.668Z,11.77
2022-08-23T11:25:34.303Z,11.27
2022-08-23T11:28:25.625Z,10.57
2022-08-23T11:30:57.589Z,10.48
2022-08-23T11:33:34.740Z,14.57
2022-08-23T11:36:10.497Z,10.80
2022-08-23T11:38:49.636Z,10.20
2022-08-23T11:41:19.123Z,14.05
2022-08-23T11:44:10.777Z,11.40
2022-08-23T11:46:57.804Z,11.45
2022-08-23T11:49:30.517Z,9.50
2022-08-23T11:52:13.297Z,10.80
2022-08-23T11:55:08.236Z,8.95
2022-08-23T11:57:44.223Z,9.23
2022-08-23T12:00:48.613Z,9.10
2022-08-23T12:03:33.917Z,8.95
2022-08-23T12:06:12.819Z,10.40
2022-08-23T12:08:55.852Z,8.65
2022-08-23T12:11:26.035Z,8.98
2022-08-23T12:14:30.960Z,8.40
2022-08-23T12:17:04.098Z,9.57
2022-08-23T12:19:57.817Z,9.00
2022-08-23T12:22:30.254Z,7.35
2022-08-23T12:25:03.168Z,11.43
2022-08-23T12:27:44.925Z,9.23
2022-08-23T12:30:20.474Z,9.82
2022-08-23T12:33:06.303Z,8.27
2022-08-23T12:35:50.534Z,8.50
2022-08-23T12:38:35.721Z,7.82
2022-08-23T12:41:17.905Z,8.55
2022-08-23T12:44:06.282Z,10.50
2022-08-23T12:46:39.033Z,8.00
2022-08-23T12:49:13.544Z,8.95
2022-08-23T12:51:50.358Z,8.07
2022-08-23T12:54:23.085Z,9.50
2022-08-23T12:56:54.028Z,10.25
2022-08-23T12:59:45.224Z,10.35
2022-08-23T13:02:20.509Z,9.25
2022-08-23T13:04:47.298Z,7.78
2022-08-23T13:07:19.810Z,7.85
2022-08-23T13:09:53.254Z,6.60
2022-08-23T13:12:20.949Z,7.75
2022-08-23T13:14:50.614Z,8.35
2022-08-23T13:17:20.211Z,8.85
2022-08-23T13:19:50.938Z,8.27
2022-08-23T13:22:26.762Z,9.25
2022-08-23T13:25:29.048Z,7.10
2022-08-23T13:27:59.976Z,10.63
2022-08-23T13:30:37.593Z,8.95
2022-08-23T13:33:07.695Z,9.70
2022-08-23T13:35:41.030Z,7.90
2022-08-23T13:38:08.316Z,10.93
2022-08-23T13:40:59.655Z,9.38
2022-08-23T13:43:48.404Z,7.50
2022-08-23T13:46:22.356Z,8.75
2022-08-23T13:49:27.410Z,8.10
2022-08-23T13:52:17.210Z,8.82
2022-08-23T13:54:50.701Z,7.53
2022-08-23T13:57:21.882Z,8.60
2022-08-23T13:59:52.637Z,6.88
2022-08-23T14:02:21.311Z,7.03
2022-08-23T14:04:48.741Z,8.70
2022-08-23T14:07:17.895Z,10.00
2022-08-23T14:09:44.684Z,9.02
2022-08-23T14:12:19.135Z,6.32
2022-08-23T14:15:07.191Z,8.20
2022-08-23T14:18:16.177Z,7.45
2022-08-23T14:21:04.605Z,7.70
2022-08-23T14:23:44.902Z,6.43
2022-08-23T14:26:23.871Z,5.47
2022-08-23T14:29:05.683Z,5.65
2022-08-23T14:31:37.435Z,6.78
2022-08-23T14:40:41.326Z,4.65
2022-08-23T14:43:33.969Z,6.32
2022-08-23T15:46:31.630Z,5.68
2022-08-23T15:49:12.943Z,5.72
2022-08-23T15:51:42.158Z,5.82
2022-08-23T15:54:18.607Z,5.60
2022-08-23T15:56:48.490Z,6.22
2022-08-23T15:59:18.857Z,8.25
2022-08-23T16:01:46.256Z,8.25
2022-08-23T16:04:13.363Z,5.32
2022-08-23T16:06:41.764Z,5.47
2022-08-23T16:09:17.768Z,8.93
2022-08-23T16:11:44.527Z,7.25
2022-08-23T16:14:12.084Z,6.18
2022-08-23T16:16:42.387Z,6.72
2022-08-23T16:19:10.177Z,6.82
2022-08-23T16:21:37.348Z,6.05
2022-08-23T16:24:05.060Z,5.78
2022-08-23T16:26:35.589Z,6.38
2022-08-23T16:29:06.293Z,7.95
2022-08-23T16:31:38.238Z,6.40
2022-08-23T16:34:09.552Z,7.18
2022-08-23T16:36:36.861Z,6.18
2022-08-23T16:39:05.714Z,8.88
2022-08-23T16:41:32.673Z,9.57
2022-08-23T16:43:59.735Z,7.47
2022-08-23T16:46:27.606Z,13.30
2022-08-23T16:48:54.787Z,12.68
2022-08-23T16:51:22.283Z,6.88
2022-08-23T16:54:02.221Z,7.22
2022-08-23T16:56:34.254Z,6.05
2022-08-23T16:59:02.323Z,6.45
2022-08-23T17:01:30.132Z,5.38
2022-08-23T17:03:57.063Z,5.57
2022-08-23T17:06:23.813Z,5.65
2022-08-23T17:08:50.637Z,6.35
2022-08-23T17:11:19.406Z,5.63
2022-08-23T17:13:46.354Z,6.00
2022-08-23T17:16:13.339Z,5.75
2022-08-23T17:18:40.368Z,6.07
2022-08-23T17:21:09.386Z,5.15
2022-08-23T17:23:40.326Z,7.70
2022-08-23T17:26:33.808Z,4.97
2022-08-23T17:29:06.547Z,6.53
2022-08-23T17:31:33.975Z,4.60
2022-08-23T17:34:04.266Z,7.03
2022-08-23T17:37:01.162Z,7.07
2022-08-23T17:39:31.472Z,5.90
2022-08-23T17:41:58.839Z,4.63
2022-08-23T17:44:25.839Z,3.72
2022-08-23T17:46:53.152Z,6.25
2022-08-23T18:04:05.755Z,4.30
2022-08-23T18:06:33.838Z,5.80
2022-08-23T18:09:02.950Z,3.90
2022-08-23T18:11:31.945Z,3.50
2022-08-23T18:13:59.356Z,3.78
2022-08-23T18:16:35.013Z,3.80
2022-08-23T18:19:03.524Z,4.35
2022-08-23T18:21:31.077Z,3.47
2022-08-23T18:24:02.274Z,3.40
2022-08-23T18:26:48.323Z,3.17
2022-08-23T18:29:17.040Z,4.00
2022-08-23T18:31:45.619Z,5.07
2022-08-23T18:58:53.871Z,4.03
2022-08-23T19:04:52.103Z,3.08
2022-08-23T19:18:17.844Z,2.35
2022-08-23T19:20:47.573Z,2.20
2022-08-23T19:23:38.516Z,2.90
2022-08-23T19:27:14.327Z,2.15
2022-08-23T19:29:55.915Z,4.03
2022-08-23T19:32:49.057Z,2.67
2022-08-23T19:35:17.393Z,2.20
2022-08-23T19:54:10.831Z,2.72
2022-08-23T19:56:48.254Z,2.05
2022-08-23T19:59:27.384Z,2.63
2022-08-23T20:01:59.084Z,2.33
2022-08-23T20:04:30.070Z,3.40
2022-08-23T20:06:58.648Z,2.13
2022-08-23T20:09:28.949Z,2.95
2022-08-23T20:11:57.902Z,1.75
2022-08-23T20:14:27.372Z,3.53
2022-08-23T20:16:55.101Z,1.60
2022-08-23T20:19:26.482Z,1.98
2022-08-23T20:22:16.314Z,1.70
2022-08-23T20:24:51.692Z,3.45
2022-08-23T20:27:30.411Z,2.20
2022-08-23T20:30:01.826Z,3.00
2022-08-23T20:32:31.940Z,4.30
2022-08-23T20:37:28.438Z,2.38
2022-08-23T20:39:55.697Z,2.45
2022-08-23T20:42:25.624Z,4.20
2022-08-23T20:47:21.125Z,3.85
2022-08-23T20:49:48.412Z,2.35
2022-08-23T20:52:18.009Z,3.08
2022-08-23T20:54:47.137Z,3.38
2022-08-23T20:57:14.457Z,3.90
2022-08-23T20:59:44.754Z,1.75
2022-08-23T21:02:13.210Z,4.53
2022-08-23T21:04:40.765Z,1.70
2022-08-23T21:07:08.916Z,2.80
2022-08-23T21:09:36.133Z,3.28
2022-08-23T21:12:04.024Z,1.40
2022-08-23T21:14:31.167Z,1.65
2022-08-23T21:16:59.929Z,2.60
2022-08-23T21:19:37.414Z,4.32
2022-08-23T21:22:04.758Z,2.33
2022-08-23T21:24:32.560Z,3.72
2022-08-23T21:27:00.098Z,2.72
2022-08-23T21:29:30.347Z,4.95
2022-08-23T21:31:58.115Z,3.53
2022-08-23T21:34:25.165Z,4.57
2022-08-23T21:36:52.568Z,3.35
2022-08-23T21:39:19.802Z,4.82
2022-08-23T21:41:48.913Z,1.85
2022-08-23T21:44:20.790Z,1.83
2022-08-23T21:46:48.945Z,2.78
2022-08-23T21:49:17.503Z,3.85
2022-08-23T21:51:45.872Z,2.08
2022-08-23T21:54:19.419Z,6.68
2022-08-23T21:56:48.703Z,3.03
2022-08-23T21:59:17.676Z,3.83
2022-08-23T22:01:45.399Z,5.97
2022-08-23T22:04:14.408Z,2.40
2022-08-23T22:06:44.035Z,4.97
2022-08-23T22:09:15.442Z,3.63
2022-08-23T22:11:44.731Z,4.72
2022-08-23T22:14:21.756Z,2.92
2022-08-23T22:16:49.750Z,4.43
2022-08-23T22:19:23.200Z,4.65
2022-08-23T22:21:52.500Z,4.32
2022-08-23T22:24:25.256Z,6.07
2022-08-23T22:26:54.682Z,6.32
2022-08-23T22:29:21.794Z,7.85
2022-08-23T22:31:49.490Z,6.25
2022-08-23T22:34:16.550Z,7.15
2022-08-23T22:36:52.041Z,6.28
2022-08-23T22:39:20.199Z,4.88
2022-08-23T22:41:47.380Z,5.20
2022-08-23T22:44:14.513Z,6.38
2022-08-23T22:46:41.586Z,9.35
2022-08-23T22:49:09.587Z,6.47
2022-08-23T22:54:08.793Z,6.88
2022-08-23T22:56:54.304Z,5.95
2022-08-23T22:59:25.834Z,6.00
2022-08-23T23:03:33.875Z,7.70
2022-08-23T23:06:01.830Z,6.05
2022-08-23T23:08:28.757Z,6.05
2022-08-23T23:11:05.790Z,9.45
2022-08-23T23:13:33.973Z,9.70
2022-08-23T23:16:07.222Z,5.80
2022-08-23T23:18:35.096Z,8.55
2022-08-23T23:21:04.714Z,8.27
2022-08-23T23:23:32.940Z,7.03
2022-08-23T23:26:00.532Z,8.88
2022-08-23T23:28:27.791Z,9.90
2022-08-23T23:30:55.699Z,10.95
2022-08-23T23:33:23.910Z,8.68
2022-08-23T23:35:51.980Z,12.70
2022-08-23T23:38:19.214Z,12.65
2022-08-23T23:40:46.796Z,7.43
2022-08-23T23:43:13.941Z,8.45
2022-08-23T23:45:41.646Z,7.80
2022-08-23T23:48:09.824Z,8.45
2022-08-23T23:50:44.896Z,11.13
2022-08-23T23:53:13.699Z,10.57
2022-08-23T23:55:41.073Z,12.02
2022-08-23T23:58:08.177Z,12.93
